Time;durP1;ratioP1;P1;durP2;ratioP2;P2;SDS_P1;SDS_P2;PMS_P1;PMS_P2;Temp;Humidity;BMP_temperature;BMP_pressure;BME280_temperature;BME280_humidity;BME280_pressure;Samples;Min_cycle;Max_cycle;Signal;HPM_P1;HPM_P2
2021/06/23 16:38:58;;;;;;;4.72;1.55;;;;;;;26.87;37.26;97174.44;5066700;28;20460;-46
2021/06/23 16:41:23;;;;;;;4.72;1.80;;;;;;;26.94;37.92;97174.34;5068483;28;20029;-56
2021/06/23 16:43:49;;;;;;;5.47;1.80;;;;;;;27.02;36.94;97174.03;5069841;28;20393;-46
2021/06/23 16:46:14;;;;;;;4.57;1.90;;;;;;;27.01;37.99;97177.03;5070081;28;20036;-50
2021/06/23 16:48:40;;;;;;;7.38;1.88;;;;;;;27.11;36.87;97184.72;5070058;28;20032;-49
2021/06/23 16:51:05;;;;;;;5.22;1.90;;;;;;;27.22;38.74;97172.91;5069859;28;20028;-58
2021/06/23 16:53:31;;;;;;;4.82;1.90;;;;;;;27.05;37.39;97169.94;5070097;28;20472;-57
2021/06/23 16:55:57;;;;;;;7.47;1.90;;;;;;;26.94;37.88;97163.31;5069749;28;20033;-59
2021/06/23 16:58:26;;;;;;;4.93;1.80;;;;;;;26.79;37.42;97163.72;5070300;28;20088;-56
2021/06/23 17:00:52;;;;;;;8.48;1.90;;;;;;;26.71;37.64;97173.16;5070110;28;20112;-47
2021/06/23 17:03:18;;;;;;;14.60;8.02;;;;;;;26.54;37.45;97175.66;5070129;28;20515;-50
2021/06/23 17:05:43;;;;;;;8.52;5.20;;;;;;;26.43;39.07;97179.19;5068508;28;20025;-52
2021/06/23 17:08:09;;;;;;;8.13;2.53;;;;;;;26.71;37.78;97184.19;5069453;28;20070;-57
2021/06/23 17:10:34;;;;;;;7.57;2.40;;;;;;;26.71;37.73;97178.66;5069839;28;20037;-50
2021/06/23 17:13:00;;;;;;;5.50;1.98;;;;;;;26.67;38.38;97182.06;5069770;28;20017;-46
2021/06/23 17:15:25;;;;;;;7.32;2.80;;;;;;;26.72;39.14;97179.50;5068342;28;20086;-53
2021/06/23 17:17:51;;;;;;;4.68;2.10;;;;;;;26.82;38.11;97190.84;5068978;28;20029;-52
2021/06/23 17:22:54;;;;;;;4.57;1.75;;;;;;;26.70;38.40;97184.38;5065657;27;20470;-60
2021/06/23 17:25:20;;;;;;;3.70;1.70;;;;;;;26.47;37.90;97180.41;5049568;28;20029;-59
2021/06/23 17:27:45;;;;;;;5.57;1.90;;;;;;;26.09;40.46;97186.94;5049174;28;20028;-59
2021/06/23 17:30:12;;;;;;;4.72;1.80;;;;;;;26.25;39.84;97184.69;5049961;28;20041;-59
2021/06/23 17:32:37;;;;;;;3.67;1.75;;;;;;;26.27;41.60;97186.13;5048860;28;20044;-59
2021/06/23 17:35:05;;;;;;;3.65;1.60;;;;;;;26.40;38.39;97187.88;5049941;28;20033;-59
2021/06/23 17:37:30;;;;;;;4.22;1.90;;;;;;;26.61;38.86;97174.72;5048144;28;20025;-60
2021/06/23 17:39:56;;;;;;;5.82;2.00;;;;;;;26.55;38.51;97177.34;5050070;28;20040;-59
2021/06/23 17:42:21;;;;;;;47.58;38.83;;;;;;;26.19;40.76;97167.97;5049892;28;20037;-60
2021/06/23 17:44:47;;;;;;;5.25;2.85;;;;;;;25.89;40.69;97176.06;5049504;28;20029;-60
2021/06/23 17:47:12;;;;;;;2.70;1.65;;;;;;;25.71;41.00;97179.63;5048724;28;20370;-60
2021/06/23 17:49:37;;;;;;;3.92;1.70;;;;;;;25.76;39.36;97177.00;5049801;28;20025;-60
2021/06/23 17:52:03;;;;;;;6.10;1.98;;;;;;;25.89;39.86;97189.84;5047713;28;20075;-60
2021/06/23 17:54:28;;;;;;;4.75;1.70;;;;;;;25.36;42.19;97202.09;5049644;28;20025;-60
2021/06/23 17:56:54;;;;;;;2.55;1.77;;;;;;;25.24;42.65;97208.28;5048873;28;20032;-60
2021/06/23 17:59:19;;;;;;;5.22;2.35;;;;;;;25.24;42.36;97201.91;5049413;28;20029;-60
2021/06/23 18:01:45;;;;;;;5.30;2.50;;;;;;;25.37;42.57;97201.03;5049205;28;20083;-60
2021/06/23 18:04:10;;;;;;;9.85;2.85;;;;;;;25.27;43.26;97207.00;5047175;28;20029;-60
2021/06/23 18:06:36;;;;;;;7.72;3.38;;;;;;;25.43;44.47;97207.56;5048033;28;20397;-59
2021/06/23 18:09:02;;;;;;;11.48;3.10;;;;;;;25.09;45.02;97212.38;5048288;28;20083;-59
2021/06/23 18:11:27;;;;;;;19.38;6.35;;;;;;;25.19;44.89;97210.84;5048266;28;20099;-59
2021/06/23 18:13:52;;;;;;;8.13;3.42;;;;;;;25.13;45.00;97214.47;5049718;28;20371;-60
2021/06/23 18:16:18;;;;;;;5.32;2.10;;;;;;;25.05;45.32;97225.72;5048410;28;20470;-60
2021/06/23 18:18:44;;;;;;;6.45;2.25;;;;;;;24.89;45.44;97230.69;5047326;28;20043;-59
2021/06/23 18:21:09;;;;;;;5.70;1.90;;;;;;;24.56;45.27;97233.50;5028859;28;20068;-60
2021/06/23 18:23:35;;;;;;;4.78;2.10;;;;;;;24.49;44.45;97238.16;5047249;28;20482;-60
2021/06/23 18:26:00;;;;;;;8.20;2.25;;;;;;;24.42;45.32;97240.94;5049085;28;20025;-59
2021/06/23 18:28:26;;;;;;;5.35;2.10;;;;;;;24.26;45.80;97247.72;5030762;28;20033;-59
2021/06/23 18:30:51;;;;;;;10.80;3.80;;;;;;;24.29;44.99;97247.31;5047016;28;20040;-59
2021/06/23 18:33:17;;;;;;;4.82;2.22;;;;;;;23.74;46.54;97253.84;5041064;28;20100;-59
2021/06/23 18:35:43;;;;;;;3.95;2.20;;;;;;;23.67;46.67;97257.63;5035661;28;20462;-59
2021/06/23 18:38:08;;;;;;;11.68;4.75;;;;;;;23.75;46.60;97265.66;5034717;28;20032;-59
2021/06/23 18:40:34;;;;;;;6.57;2.90;;;;;;;23.50;47.12;97273.63;5034447;28;20037;-59
2021/06/23 18:42:59;;;;;;;5.18;2.45;;;;;;;23.27;47.95;97283.06;5017843;28;20029;-59
2021/06/23 18:45:26;;;;;;;5.93;2.50;;;;;;;23.26;47.93;97273.13;5035609;28;20026;-59
2021/06/23 18:47:52;;;;;;;4.45;2.30;;;;;;;23.22;47.40;97277.34;5034033;28;20033;-59
2021/06/23 18:50:18;;;;;;;8.27;2.30;;;;;;;22.71;47.34;97273.94;5035733;28;20382;-59
2021/06/23 18:52:43;;;;;;;10.05;3.95;;;;;;;23.14;47.33;97280.28;5034208;28;20065;-59
2021/06/23 18:55:09;;;;;;;12.52;3.60;;;;;;;23.40;46.97;97280.38;5034045;28;20473;-58
2021/06/23 18:57:35;;;;;;;9.13;4.85;;;;;;;23.35;47.69;97282.88;5033819;28;20031;-59
2021/06/23 19:00:01;;;;;;;8.60;4.05;;;;;;;23.38;47.07;97279.75;5029398;28;20029;-59
2021/06/23 19:02:26;;;;;;;8.80;3.08;;;;;;;23.43;45.06;97287.34;5034859;28;20088;-59
2021/06/23 19:04:52;;;;;;;6.63;2.40;;;;;;;23.31;43.50;97292.59;5033937;28;20087;-58
2021/06/23 19:07:18;;;;;;;6.07;2.38;;;;;;;23.07;46.33;97299.41;5033921;28;20032;-59
2021/06/23 19:09:44;;;;;;;4.60;2.17;;;;;;;22.93;46.96;97295.78;5031155;28;20045;-58
2021/06/23 19:12:11;;;;;;;3.92;2.35;;;;;;;23.05;46.88;97301.53;5034094;28;20030;-58
2021/06/23 19:14:36;;;;;;;10.65;3.97;;;;;;;23.03;46.54;97306.38;5027471;28;20028;-59
2021/06/23 19:17:02;;;;;;;10.38;3.90;;;;;;;23.31;45.82;97309.03;5031372;28;20401;-58
2021/06/23 19:19:27;;;;;;;7.18;2.80;;;;;;;23.32;45.52;97315.41;5031848;28;20042;-59
2021/06/23 19:21:53;;;;;;;5.30;2.60;;;;;;;23.36;44.75;97313.94;5033099;28;20490;-58
2021/06/23 19:24:18;;;;;;;5.18;2.30;;;;;;;23.34;44.36;97318.75;5034189;28;20036;-58
2021/06/23 19:26:44;;;;;;;5.03;2.30;;;;;;;23.20;44.70;97326.94;5032370;28;20031;-58
2021/06/23 19:29:09;;;;;;;5.10;2.30;;;;;;;23.04;45.53;97327.28;5032819;28;20030;-58
2021/06/23 19:31:35;;;;;;;6.30;2.60;;;;;;;22.89;46.57;97332.88;5034376;28;20033;-58
2021/06/23 19:34:02;;;;;;;7.75;2.88;;;;;;;22.73;47.12;97326.66;5034396;28;20100;-59
2021/06/23 19:36:28;;;;;;;8.13;2.85;;;;;;;22.72;47.50;97333.19;5034633;28;20084;-59
2021/06/23 19:38:53;;;;;;;5.65;2.53;;;;;;;22.84;46.79;97336.22;5033126;28;20037;-58
2021/06/23 19:41:19;;;;;;;4.55;2.50;;;;;;;22.95;45.79;97337.53;5034176;28;20044;-59
2021/06/23 19:43:45;;;;;;;8.95;2.63;;;;;;;22.97;45.78;97335.47;5032852;28;20037;-59
2021/06/23 19:46:10;;;;;;;10.63;3.70;;;;;;;22.90;45.74;97340.91;5033627;28;20026;-58
2021/06/23 19:48:36;;;;;;;7.32;3.40;;;;;;;22.87;45.32;97341.28;5016582;28;20040;-58
2021/06/23 19:51:02;;;;;;;8.50;3.45;;;;;;;22.87;45.26;97337.72;5031610;28;20033;-58
2021/06/23 19:53:27;;;;;;;8.95;3.15;;;;;;;22.81;45.36;97338.50;5033659;28;20052;-56
2021/06/23 19:55:55;;;;;;;7.50;3.10;;;;;;;22.71;45.43;97344.38;5031265;28;20482;-57
2021/06/23 19:58:20;;;;;;;6.88;2.90;;;;;;;22.67;45.65;97346.66;5032270;28;20045;-58
2021/06/23 20:00:46;;;;;;;9.05;2.88;;;;;;;22.60;45.90;97350.41;5033566;28;20486;-58
2021/06/23 20:03:11;;;;;;;7.60;2.80;;;;;;;22.68;45.54;97347.53;5031093;28;20026;-58
2021/06/23 20:05:39;;;;;;;3.97;2.30;;;;;;;22.72;45.87;97348.81;5033450;28;20017;-58
2021/06/23 20:08:05;;;;;;;6.50;2.42;;;;;;;22.67;46.07;97348.56;5032578;28;20079;-58
2021/06/23 20:10:32;;;;;;;4.82;2.30;;;;;;;22.57;46.15;97348.91;5032972;28;20026;-58
2021/06/23 20:12:57;;;;;;;4.80;2.38;;;;;;;22.51;46.16;97346.97;5031669;28;20018;-58
2021/06/23 20:15:23;;;;;;;7.70;2.42;;;;;;;22.48;46.08;97353.69;5032407;28;20393;-58
2021/06/23 20:17:49;;;;;;;3.13;1.98;;;;;;;22.48;45.86;97342.72;5031750;28;20025;-58
2021/06/23 20:20:16;;;;;;;5.65;2.50;;;;;;;22.44;45.16;97344.19;5032744;28;20025;-58
2021/06/23 20:22:43;;;;;;;6.57;2.65;;;;;;;22.33;45.28;97342.81;5031362;28;20433;-58
2021/06/23 20:25:09;;;;;;;6.50;2.22;;;;;;;22.24;45.30;97350.31;5014155;28;20469;-58
2021/06/23 20:27:34;;;;;;;3.50;2.20;;;;;;;22.29;44.29;97349.72;5033348;28;20036;-58
2021/06/23 20:30:00;;;;;;;5.65;2.53;;;;;;;21.93;45.85;97355.28;5033490;28;20108;-59
2021/06/23 20:32:26;;;;;;;4.05;2.28;;;;;;;22.03;44.96;97356.66;5033396;28;20040;-59
2021/06/23 20:34:51;;;;;;;6.25;2.22;;;;;;;21.99;44.73;97360.81;5032329;28;20482;-59
2021/06/23 20:37:17;;;;;;;3.75;2.00;;;;;;;22.01;44.54;97374.34;5032255;28;20029;-59
2021/06/23 20:39:44;;;;;;;3.08;2.10;;;;;;;22.03;43.93;97370.38;5031912;28;20083;-61
2021/06/23 20:42:11;;;;;;;3.38;2.00;;;;;;;21.66;45.79;97371.41;5015852;28;20025;-59
2021/06/23 20:44:37;;;;;;;7.05;2.15;;;;;;;21.64;46.08;97363.41;5032048;28;20033;-59
2021/06/23 20:47:02;;;;;;;3.90;2.17;;;;;;;21.60;46.32;97372.22;5014615;28;20025;-59
2021/06/23 20:49:28;;;;;;;5.43;2.22;;;;;;;21.61;45.72;97379.38;5032161;28;20540;-59
2021/06/23 20:51:53;;;;;;;3.20;2.10;;;;;;;21.71;44.50;97369.81;5030976;28;20034;-58
2021/06/23 20:54:19;;;;;;;7.50;2.03;;;;;;;21.50;45.87;97378.81;5032269;28;20025;-60
2021/06/23 20:56:45;;;;;;;5.35;2.00;;;;;;;21.23;46.31;97378.47;5032111;28;20474;-59
2021/06/23 20:59:11;;;;;;;4.38;1.90;;;;;;;21.31;46.90;97369.31;5030841;28;20470;-59
2021/06/23 21:01:37;;;;;;;3.55;2.00;;;;;;;21.39;47.82;97376.53;5028598;28;20033;-61
2021/06/23 21:04:03;;;;;;;3.75;2.30;;;;;;;21.44;46.58;97363.16;5029806;28;20070;-59
2021/06/23 21:06:29;;;;;;;4.40;2.10;;;;;;;21.59;46.70;97362.31;5032097;28;20021;-58
2021/06/23 21:08:55;;;;;;;3.83;2.15;;;;;;;21.65;46.12;97361.53;5030514;28;20029;-59
2021/06/23 21:11:42;;;;;;;4.32;1.85;;;;;;;21.54;45.86;97362.91;5032052;28;20047;-59
2021/06/23 21:14:21;;;;;;;5.93;2.13;;;;;;;21.37;47.33;97368.53;5053787;28;20018;-59
2021/06/23 21:16:47;;;;;;;4.10;2.00;;;;;;;21.13;47.69;97363.41;5029954;28;20033;-60
2021/06/23 21:19:26;;;;;;;4.55;1.85;;;;;;;21.09;46.76;97376.59;5030693;28;20390;-59
2021/06/23 21:21:51;;;;;;;4.57;2.10;;;;;;;21.13;47.32;97364.25;5030419;28;20045;-58
2021/06/23 21:24:30;;;;;;;5.88;2.17;;;;;;;20.94;48.04;97368.41;5031707;28;20029;-59
2021/06/23 21:27:06;;;;;;;3.80;1.92;;;;;;;20.70;49.41;97372.25;5054394;28;20042;-59
2021/06/23 21:29:36;;;;;;;6.20;2.20;;;;;;;20.69;48.98;97367.84;5030387;28;20028;-59
2021/06/23 21:32:01;;;;;;;6.95;2.55;;;;;;;20.80;49.21;97372.81;5031689;28;20378;-59
2021/06/23 21:34:27;;;;;;;3.35;2.00;;;;;;;20.63;50.40;97376.72;5014149;28;20026;-59
2021/06/23 21:36:52;;;;;;;4.32;2.17;;;;;;;20.63;50.85;97380.34;5032177;28;20100;-60
2021/06/23 21:39:18;;;;;;;4.22;2.00;;;;;;;20.60;49.19;97382.56;5033227;28;20033;-59
2021/06/23 21:41:50;;;;;;;4.00;2.30;;;;;;;20.71;48.81;97382.13;5032027;28;20028;-59
2021/06/23 21:44:24;;;;;;;3.72;1.90;;;;;;;20.81;47.87;97374.53;5032289;28;20029;-59
2021/06/23 21:46:52;;;;;;;3.30;1.90;;;;;;;20.90;47.23;97383.50;5032503;28;20474;-59
2021/06/23 21:49:28;;;;;;;3.58;1.90;;;;;;;21.01;47.31;97384.91;5032751;28;20075;-58
2021/06/23 21:51:55;;;;;;;6.07;2.28;;;;;;;21.12;46.94;97391.78;5032942;28;20020;-59
2021/06/23 21:54:42;;;;;;;6.40;2.10;;;;;;;20.92;47.75;97384.13;5032839;28;20034;-59
2021/06/23 21:57:20;;;;;;;4.70;2.10;;;;;;;20.95;47.37;97380.19;5032737;28;20492;-60
2021/06/23 21:59:47;;;;;;;4.13;2.20;;;;;;;20.99;46.97;97379.63;5032679;28;20036;-59
2021/06/23 22:02:14;;;;;;;3.83;2.20;;;;;;;21.00;47.44;97384.03;5033022;28;20037;-59
2021/06/23 22:04:42;;;;;;;6.35;2.10;;;;;;;21.05;47.42;97375.28;5032969;28;20071;-59
2021/06/23 22:07:17;;;;;;;4.57;2.15;;;;;;;20.94;47.21;97376.59;5031432;28;20032;-59
2021/06/23 22:09:50;;;;;;;5.20;2.28;;;;;;;20.92;47.53;97377.84;5035426;28;20040;-59
2021/06/23 22:12:24;;;;;;;3.20;2.00;;;;;;;20.70;49.11;97384.03;5035083;28;20052;-58
2021/06/23 22:14:52;;;;;;;3.50;2.13;;;;;;;20.60;49.70;97388.03;5036735;28;20065;-59
2021/06/23 22:17:19;;;;;;;7.05;2.35;;;;;;;20.53;50.33;97380.56;5036573;28;20355;-59
2021/06/23 22:19:45;;;;;;;5.50;2.20;;;;;;;20.36;50.63;97381.78;5036262;28;20033;-59
2021/06/23 22:22:12;;;;;;;5.03;2.38;;;;;;;20.47;50.74;97384.06;5034901;28;20115;-59
2021/06/23 22:24:38;;;;;;;4.40;2.15;;;;;;;20.38;51.31;97385.19;5035297;28;20034;-59
2021/06/23 22:27:05;;;;;;;6.70;2.65;;;;;;;20.25;51.56;97394.00;5035324;28;20029;-59
2021/06/23 22:29:31;;;;;;;6.40;2.17;;;;;;;20.31;51.54;97397.84;5036317;28;20505;-59
2021/06/23 22:32:00;;;;;;;4.03;2.00;;;;;;;20.28;51.65;97399.06;5036181;28;20022;-59
2021/06/23 22:34:26;;;;;;;5.53;2.30;;;;;;;20.18;52.38;97398.50;5036024;28;20036;-59
2021/06/23 22:36:53;;;;;;;6.30;2.50;;;;;;;19.67;54.68;97407.16;5036368;28;20021;-59
2021/06/23 22:39:20;;;;;;;5.20;2.30;;;;;;;19.71;54.59;97398.44;5034695;28;20516;-59
2021/06/23 22:41:58;;;;;;;6.28;2.70;;;;;;;19.77;54.31;97394.13;5034622;28;20040;-59
2021/06/23 22:44:24;;;;;;;4.78;2.30;;;;;;;19.82;53.04;97389.03;5035226;28;20032;-59
2021/06/23 22:49:51;;;;;;;3.85;2.13;;;;;;;20.12;52.30;97391.03;5035882;28;20393;-59
2021/06/23 22:52:22;;;;;;;9.70;2.20;;;;;;;20.13;52.61;97388.09;5034805;28;20112;-59
2021/06/23 22:54:53;;;;;;;4.47;2.40;;;;;;;20.28;51.26;97374.50;5036161;28;20068;-59
2021/06/23 22:57:19;;;;;;;4.57;2.00;;;;;;;20.51;49.33;97363.53;5035846;28;20108;-59
2021/06/23 22:59:45;;;;;;;3.60;1.95;;;;;;;20.82;48.39;97368.03;5034567;28;20052;-59
2021/06/23 23:02:11;;;;;;;4.75;2.22;;;;;;;20.46;51.27;97374.16;5034316;28;20080;-59
2021/06/23 23:04:43;;;;;;;7.65;2.30;;;;;;;20.12;52.79;97386.41;5034274;28;20402;-59
2021/06/23 23:07:09;;;;;;;5.80;2.40;;;;;;;20.14;52.86;97378.06;5035820;28;20482;-59
2021/06/23 23:09:35;;;;;;;4.45;2.30;;;;;;;20.12;52.96;97383.66;5034478;28;20030;-59
2021/06/23 23:12:01;;;;;;;6.85;2.55;;;;;;;20.16;52.73;97379.56;5035688;28;20458;-59
2021/06/23 23:14:29;;;;;;;5.80;2.40;;;;;;;20.09;53.11;97381.31;5035660;28;20029;-59
2021/06/23 23:16:56;;;;;;;4.80;2.33;;;;;;;19.81;53.96;97381.88;5034128;28;20055;-59
2021/06/23 23:19:22;;;;;;;3.65;2.15;;;;;;;19.85;53.67;97376.91;5035195;28;20118;-59
2021/06/23 23:21:49;;;;;;;4.28;2.28;;;;;;;19.92;54.18;97377.84;5035104;28;20533;-59
2021/06/23 23:24:16;;;;;;;4.30;2.30;;;;;;;19.78;54.54;97375.91;5034053;28;20117;-59
2021/06/23 23:26:42;;;;;;;6.60;2.60;;;;;;;19.72;55.19;97382.91;5034018;28;20401;-59
2021/06/23 23:29:08;;;;;;;4.40;2.50;;;;;;;19.76;55.24;97376.06;5033910;28;20030;-59
2021/06/23 23:31:34;;;;;;;5.47;2.45;;;;;;;19.78;55.29;97362.25;5034127;28;20448;-59
2021/06/23 23:34:00;;;;;;;4.53;2.60;;;;;;;19.72;55.34;97367.41;5033969;28;20029;-59
2021/06/23 23:36:26;;;;;;;6.20;2.45;;;;;;;19.69;54.87;97365.03;5035347;28;20029;-59
2021/06/23 23:38:52;;;;;;;5.55;2.28;;;;;;;19.68;55.19;97365.22;5035118;28;20029;-59
2021/06/23 23:41:17;;;;;;;5.47;2.53;;;;;;;19.57;55.63;97361.03;5034167;28;20100;-59
2021/06/23 23:43:43;;;;;;;5.88;2.50;;;;;;;19.66;54.90;97361.81;5033575;28;20500;-59
2021/06/23 23:46:09;;;;;;;5.15;2.40;;;;;;;19.63;55.10;97354.84;5033607;28;20029;-59
2021/06/23 23:48:34;;;;;;;6.82;2.40;;;;;;;19.68;54.96;97354.28;5033825;28;20033;-59
2021/06/23 23:51:00;;;;;;;5.90;2.53;;;;;;;19.58;55.08;97355.38;5034868;28;20030;-59
2021/06/23 23:53:26;;;;;;;6.43;2.50;;;;;;;19.53;55.24;97349.59;5034665;28;20481;-59
2021/06/23 23:55:51;;;;;;;6.53;2.50;;;;;;;19.46;55.90;97351.38;5034563;28;20466;-59
2021/06/23 23:58:22;;;;;;;6.00;2.30;;;;;;;19.48;56.01;97349.31;5032167;28;20053;-59
